sensor_id;sensor_type;location;lat;lon;timestamp;pressure;altitude;pressure_sealevel;temperature;humidity
35989;BME280;22064;42.672;23.282;2023-08-01T00:02:24;94383.34;;;19.92;100.00
35989;BME280;22064;42.672;23.282;2023-08-01T00:04:50;94384.44;;;19.91;100.00
35989;BME280;22064;42.672;23.282;2023-08-01T00:07:16;94382.03;;;19.80;100.00
35989;BME280;22064;42.672;23.282;2023-08-01T00:09:42;94383.72;;;19.68;100.00
35989;BME280;22064;42.672;23.282;2023-08-01T00:12:08;94383.22;;;19.66;100.00
35989;BME280;22064;42.672;23.282;2023-08-01T00:14:36;94381.06;;;19.68;100.00
35989;BME280;22064;42.672;23.282;2023-08-01T00:17:02;94383.25;;;19.74;100.00
35989;BME280;22064;42.672;23.282;2023-08-01T00:19:28;94377.59;;;19.58;100.00
35989;BME280;22064;42.672;23.282;2023-08-01T00:21:54;94367.78;;;19.50;100.00
35989;BME280;22064;42.672;23.282;2023-08-01T00:24:20;94380.06;;;19.55;100.00
35989;BME280;22064;42.672;23.282;2023-08-01T00:26:46;94367.28;;;19.48;100.00
35989;BME280;22064;42.672;23.282;2023-08-01T00:29:13;94371.03;;;19.47;100.00
35989;BME280;22064;42.672;23.282;2023-08-01T00:31:39;94360.59;;;19.42;100.00
35989;BME280;22064;42.672;23.282;2023-08-01T00:34:05;94371.31;;;19.46;100.00
35989;BME280;22064;42.672;23.282;2023-08-01T00:36:31;94366.03;;;19.46;100.00
35989;BME280;22064;42.672;23.282;2023-08-01T00:38:57;94364.78;;;19.43;100.00
35989;BME280;22064;42.672;23.282;2023-08-01T00:41:23;94379.88;;;19.51;100.00
35989;BME280;22064;42.672;23.282;2023-08-01T00:43:49;94377.38;;;19.46;100.00
35989;BME280;22064;42.672;23.282;2023-08-01T00:46:15;94375.81;;;19.45;100.00
35989;BME280;22064;42.672;23.282;2023-08-01T00:48:41;94372.69;;;19.43;100.00
35989;BME280;22064;42.672;23.282;2023-08-01T00:51:08;94371.81;;;19.48;100.00
35989;BME280;22064;42.672;23.282;2023-08-01T00:53:35;94366.03;;;19.46;100.00
35989;BME280;22064;42.672;23.282;2023-08-01T00:56:01;94364.53;;;19.53;100.00
35989;BME280;22064;42.672;23.282;2023-08-01T00:58:27;94359.31;;;19.39;100.00
35989;BME280;22064;42.672;23.282;2023-08-01T01:00:53;94349.69;;;19.35;100.00
35989;BME280;22064;42.672;23.282;2023-08-01T01:03:21;94361.03;;;19.35;100.00
35989;BME280;22064;42.672;23.282;2023-08-01T01:06:01;94359.16;;;19.36;100.00
35989;BME280;22064;42.672;23.282;2023-08-01T01:08:28;94361.75;;;19.27;100.00
35989;BME280;22064;42.672;23.282;2023-08-01T01:10:54;94368.91;;;19.27;100.00
35989;BME280;22064;42.672;23.282;2023-08-01T01:13:20;94355.59;;;19.09;100.00
35989;BME280;22064;42.672;23.282;2023-08-01T01:15:46;94350.03;;;19.11;100.00
35989;BME280;22064;42.672;23.282;2023-08-01T01:18:13;94339.91;;;19.04;100.00
35989;BME280;22064;42.672;23.282;2023-08-01T01:20:39;94340.84;;;19.08;100.00
35989;BME280;22064;42.672;23.282;2023-08-01T01:23:05;94342.59;;;19.13;100.00
35989;BME280;22064;42.672;23.282;2023-08-01T01:25:32;94336.66;;;19.07;100.00
35989;BME280;22064;42.672;23.282;2023-08-01T01:28:03;94344.81;;;19.20;100.00
35989;BME280;22064;42.672;23.282;2023-08-01T01:30:30;94346.34;;;19.21;100.00
35989;BME280;22064;42.672;23.282;2023-08-01T01:33:00;94320.81;;;19.07;100.00
35989;BME280;22064;42.672;23.282;2023-08-01T01:35:26;94325.97;;;19.12;100.00
35989;BME280;22064;42.672;23.282;2023-08-01T01:37:52;94329.41;;;19.22;100.00
35989;BME280;22064;42.672;23.282;2023-08-01T01:40:18;94328.97;;;19.20;100.00
35989;BME280;22064;42.672;23.282;2023-08-01T01:42:44;94338.09;;;19.13;100.00
35989;BME280;22064;42.672;23.282;2023-08-01T01:45:10;94335.63;;;19.17;100.00
35989;BME280;22064;42.672;23.282;2023-08-01T01:47:36;94336.88;;;19.20;100.00
35989;BME280;22064;42.672;23.282;2023-08-01T01:50:02;94326.28;;;19.11;100.00
35989;BME280;22064;42.672;23.282;2023-08-01T01:52:29;94295.72;;;18.87;100.00
35989;BME280;22064;42.672;23.282;2023-08-01T01:54:55;94329.94;;;19.01;100.00
35989;BME280;22064;42.672;23.282;2023-08-01T01:57:21;94339.34;;;18.93;100.00
35989;BME280;22064;42.672;23.282;2023-08-01T01:59:47;94335.78;;;18.89;100.00
35989;BME280;22064;42.672;23.282;2023-08-01T02:02:13;94335.28;;;18.87;100.00
35989;BME280;22064;42.672;23.282;2023-08-01T02:04:40;94350.94;;;18.84;100.00
35989;BME280;22064;42.672;23.282;2023-08-01T02:07:06;94350.34;;;18.87;100.00
35989;BME280;22064;42.672;23.282;2023-08-01T02:09:32;94339.44;;;18.80;100.00
35989;BME280;22064;42.672;23.282;2023-08-01T02:11:59;94349.22;;;18.79;100.00
35989;BME280;22064;42.672;23.282;2023-08-01T02:14:25;94339.09;;;18.73;100.00
35989;BME280;22064;42.672;23.282;2023-08-01T02:16:51;94343.53;;;18.72;100.00
35989;BME280;22064;42.672;23.282;2023-08-01T02:19:17;94330.16;;;18.68;100.00
35989;BME280;22064;42.672;23.282;2023-08-01T02:21:43;94330.25;;;18.77;100.00
35989;BME280;22064;42.672;23.282;2023-08-01T02:24:10;94328.78;;;18.85;100.00
35989;BME280;22064;42.672;23.282;2023-08-01T02:26:37;94330.94;;;18.83;100.00
35989;BME280;22064;42.672;23.282;2023-08-01T02:29:03;94328.78;;;18.85;100.00
35989;BME280;22064;42.672;23.282;2023-08-01T02:31:30;94332.00;;;18.82;100.00
35989;BME280;22064;42.672;23.282;2023-08-01T02:33:56;94341.59;;;18.78;100.00
35989;BME280;22064;42.672;23.282;2023-08-01T02:36:22;94334.84;;;18.72;100.00
35989;BME280;22064;42.672;23.282;2023-08-01T02:38:48;94333.13;;;18.67;100.00
35989;BME280;22064;42.672;23.282;2023-08-01T02:41:14;94329.31;;;18.73;100.00
35989;BME280;22064;42.672;23.282;2023-08-01T02:43:40;94333.56;;;18.83;100.00
35989;BME280;22064;42.672;23.282;2023-08-01T02:46:07;94330.84;;;18.74;100.00
35989;BME280;22064;42.672;23.282;2023-08-01T02:48:33;94329.72;;;18.66;100.00
35989;BME280;22064;42.672;23.282;2023-08-01T02:51:01;94333.53;;;18.60;100.00
35989;BME280;22064;42.672;23.282;2023-08-01T02:53:27;94330.31;;;18.63;100.00
35989;BME280;22064;42.672;23.282;2023-08-01T02:55:53;94327.06;;;18.66;100.00
35989;BME280;22064;42.672;23.282;2023-08-01T02:58:19;94335.63;;;18.50;100.00
35989;BME280;22064;42.672;23.282;2023-08-01T03:00:45;94315.63;;;18.35;100.00
35989;BME280;22064;42.672;23.282;2023-08-01T03:03:13;94332.97;;;18.27;100.00
35989;BME280;22064;42.672;23.282;2023-08-01T03:05:39;94336.72;;;17.98;100.00
35989;BME280;22064;42.672;23.282;2023-08-01T03:08:05;94343.75;;;17.89;100.00
35989;BME280;22064;42.672;23.282;2023-08-01T03:10:31;94342.22;;;17.88;100.00
35989;BME280;22064;42.672;23.282;2023-08-01T03:12:57;94330.88;;;17.88;100.00
35989;BME280;22064;42.672;23.282;2023-08-01T03:15:23;94330.81;;;17.79;100.00
35989;BME280;22064;42.672;23.282;2023-08-01T03:17:49;94321.91;;;17.61;100.00
35989;BME280;22064;42.672;23.282;2023-08-01T03:20:15;94345.50;;;17.66;100.00
35989;BME280;22064;42.672;23.282;2023-08-01T03:22:41;94340.41;;;17.56;100.00
35989;BME280;22064;42.672;23.282;2023-08-01T03:25:07;94338.09;;;17.54;100.00
35989;BME280;22064;42.672;23.282;2023-08-01T03:27:34;94343.94;;;17.51;100.00
35989;BME280;22064;42.672;23.282;2023-08-01T03:30:00;94347.34;;;17.52;100.00
35989;BME280;22064;42.672;23.282;2023-08-01T03:32:27;94345.88;;;17.46;100.00
35989;BME280;22064;42.672;23.282;2023-08-01T03:34:53;94351.94;;;17.60;100.00
35989;BME280;22064;42.672;23.282;2023-08-01T03:37:19;94335.75;;;17.53;100.00
35989;BME280;22064;42.672;23.282;2023-08-01T03:39:45;94330.47;;;17.39;100.00
35989;BME280;22064;42.672;23.282;2023-08-01T03:42:11;94354.16;;;17.53;100.00
35989;BME280;22064;42.672;23.282;2023-08-01T03:44:37;94343.38;;;17.54;100.00
35989;BME280;22064;42.672;23.282;2023-08-01T03:47:03;94348.44;;;17.51;100.00
35989;BME280;22064;42.672;23.282;2023-08-01T03:49:30;94351.16;;;17.60;100.00
35989;BME280;22064;42.672;23.282;2023-08-01T03:51:56;94350.38;;;17.73;100.00
35989;BME280;22064;42.672;23.282;2023-08-01T03:54:22;94346.31;;;17.94;100.00
35989;BME280;22064;42.672;23.282;2023-08-01T03:56:48;94354.53;;;18.15;100.00
35989;BME280;22064;42.672;23.282;2023-08-01T03:59:15;94355.25;;;18.43;100.00
35989;BME280;22064;42.672;23.282;2023-08-01T04:01:41;94352.28;;;18.73;100.00
35989;BME280;22064;42.672;23.282;2023-08-01T04:04:08;94357.31;;;18.69;100.00
35989;BME280;22064;42.672;23.282;2023-08-01T04:06:34;94360.13;;;18.50;100.00
35989;BME280;22064;42.672;23.282;2023-08-01T04:09:00;94365.47;;;18.59;100.00
35989;BME280;22064;42.672;23.282;2023-08-01T04:11:27;94361.53;;;18.70;100.00
35989;BME280;22064;42.672;23.282;2023-08-01T04:13:53;94349.38;;;19.05;100.00
35989;BME280;22064;42.672;23.282;2023-08-01T04:16:19;94351.56;;;19.74;100.00
35989;BME280;22064;42.672;23.282;2023-08-01T04:18:45;94354.34;;;20.35;100.00
35989;BME280;22064;42.672;23.282;2023-08-01T04:21:14;94365.09;;;20.47;100.00
35989;BME280;22064;42.672;23.282;2023-08-01T04:23:40;94366.03;;;20.95;100.00
35989;BME280;22064;42.672;23.282;2023-08-01T04:26:06;94366.44;;;21.40;100.00
35989;BME280;22064;42.672;23.282;2023-08-01T04:28:36;94369.06;;;21.87;100.00
35989;BME280;22064;42.672;23.282;2023-08-01T04:31:02;94366.69;;;21.95;100.00
35989;BME280;22064;42.672;23.282;2023-08-01T04:33:28;94370.19;;;22.16;100.00
35989;BME280;22064;42.672;23.282;2023-08-01T04:35:54;94365.28;;;22.27;100.00
35989;BME280;22064;42.672;23.282;2023-08-01T04:38:20;94378.50;;;20.68;100.00
35989;BME280;22064;42.672;23.282;2023-08-01T04:40:46;94376.31;;;19.47;100.00
35989;BME280;22064;42.672;23.282;2023-08-01T04:43:13;94375.03;;;19.45;100.00
35989;BME280;22064;42.672;23.282;2023-08-01T04:45:39;94363.31;;;19.28;100.00
35989;BME280;22064;42.672;23.282;2023-08-01T04:48:05;94360.63;;;19.82;100.00
35989;BME280;22064;42.672;23.282;2023-08-01T04:50:31;94361.66;;;20.29;100.00
35989;BME280;22064;42.672;23.282;2023-08-01T04:52:57;94360.75;;;20.60;100.00
35989;BME280;22064;42.672;23.282;2023-08-01T04:55:23;94361.53;;;20.69;100.00
35989;BME280;22064;42.672;23.282;2023-08-01T04:57:51;94360.41;;;21.05;100.00
35989;BME280;22064;42.672;23.282;2023-08-01T05:00:17;94362.31;;;20.79;100.00
35989;BME280;22064;42.672;23.282;2023-08-01T05:02:43;94362.34;;;19.95;100.00
35989;BME280;22064;42.672;23.282;2023-08-01T05:05:09;94363.22;;;19.73;100.00
35989;BME280;22064;42.672;23.282;2023-08-01T05:07:35;94367.25;;;20.28;100.00
35989;BME280;22064;42.672;23.282;2023-08-01T05:10:01;94359.47;;;20.40;100.00
35989;BME280;22064;42.672;23.282;2023-08-01T05:12:27;94358.53;;;20.27;100.00
35989;BME280;22064;42.672;23.282;2023-08-01T05:14:53;94365.66;;;20.18;100.00
35989;BME280;22064;42.672;23.282;2023-08-01T05:17:19;94367.69;;;20.13;100.00
35989;BME280;22064;42.672;23.282;2023-08-01T05:19:45;94368.38;;;20.79;100.00
35989;BME280;22064;42.672;23.282;2023-08-01T05:22:11;94366.16;;;21.16;100.00
35989;BME280;22064;42.672;23.282;2023-08-01T05:24:37;94361.53;;;20.61;100.00
35989;BME280;22064;42.672;23.282;2023-08-01T05:27:03;94374.63;;;20.57;100.00
35989;BME280;22064;42.672;23.282;2023-08-01T05:29:29;94370.22;;;20.35;100.00
35989;BME280;22064;42.672;23.282;2023-08-01T05:31:55;94368.81;;;20.29;100.00
35989;BME280;22064;42.672;23.282;2023-08-01T05:34:20;94367.25;;;20.45;100.00
35989;BME280;22064;42.672;23.282;2023-08-01T05:36:47;94344.13;;;20.60;100.00
35989;BME280;22064;42.672;23.282;2023-08-01T05:39:13;94377.88;;;20.89;100.00
35989;BME280;22064;42.672;23.282;2023-08-01T05:41:39;94373.75;;;21.35;100.00
35989;BME280;22064;42.672;23.282;2023-08-01T05:44:05;94368.19;;;21.75;100.00
35989;BME280;22064;42.672;23.282;2023-08-01T05:46:31;94367.84;;;21.38;100.00
35989;BME280;22064;42.672;23.282;2023-08-01T05:48:57;94373.47;;;21.10;100.00
35989;BME280;22064;42.672;23.282;2023-08-01T05:51:23;94347.38;;;20.74;100.00
35989;BME280;22064;42.672;23.282;2023-08-01T05:53:49;94366.91;;;21.25;100.00
35989;BME280;22064;42.672;23.282;2023-08-01T05:56:15;94364.06;;;21.56;100.00
35989;BME280;22064;42.672;23.282;2023-08-01T05:58:41;94368.19;;;21.19;100.00
35989;BME280;22064;42.672;23.282;2023-08-01T06:01:07;94368.63;;;21.38;100.00
35989;BME280;22064;42.672;23.282;2023-08-01T06:03:34;94365.81;;;21.26;100.00
35989;BME280;22064;42.672;23.282;2023-08-01T06:06:00;94361.16;;;21.40;100.00
35989;BME280;22064;42.672;23.282;2023-08-01T06:08:26;94366.72;;;21.30;100.00
35989;BME280;22064;42.672;23.282;2023-08-01T06:10:52;94362.22;;;21.31;100.00
35989;BME280;22064;42.672;23.282;2023-08-01T06:13:18;94363.63;;;21.28;100.00
35989;BME280;22064;42.672;23.282;2023-08-01T06:15:46;94359.88;;;21.29;100.00
35989;BME280;22064;42.672;23.282;2023-08-01T06:18:12;94365.50;;;21.36;100.00
35989;BME280;22064;42.672;23.282;2023-08-01T06:20:38;94353.41;;;21.09;100.00
35989;BME280;22064;42.672;23.282;2023-08-01T06:23:05;94365.06;;;21.08;100.00
35989;BME280;22064;42.672;23.282;2023-08-01T06:25:31;94353.56;;;21.13;100.00
35989;BME280;22064;42.672;23.282;2023-08-01T06:27:57;94356.63;;;21.32;100.00
35989;BME280;22064;42.672;23.282;2023-08-01T06:30:23;94350.16;;;21.59;100.00
35989;BME280;22064;42.672;23.282;2023-08-01T06:32:49;94363.00;;;21.40;100.00
35989;BME280;22064;42.672;23.282;2023-08-01T06:35:15;94362.38;;;21.43;100.00
35989;BME280;22064;42.672;23.282;2023-08-01T06:37:41;94354.09;;;21.53;100.00
35989;BME280;22064;42.672;23.282;2023-08-01T06:40:07;94342.81;;;21.65;100.00
35989;BME280;22064;42.672;23.282;2023-08-01T06:42:34;94343.69;;;21.39;100.00
35989;BME280;22064;42.672;23.282;2023-08-01T06:45:00;94342.72;;;21.53;100.00
35989;BME280;22064;42.672;23.282;2023-08-01T06:47:26;94348.44;;;21.63;100.00
35989;BME280;22064;42.672;23.282;2023-08-01T06:49:52;94355.81;;;21.49;100.00
35989;BME280;22064;42.672;23.282;2023-08-01T06:52:18;94348.94;;;21.57;100.00
35989;BME280;22064;42.672;23.282;2023-08-01T06:54:44;94348.50;;;21.84;100.00
35989;BME280;22064;42.672;23.282;2023-08-01T06:57:10;94346.59;;;21.94;100.00
35989;BME280;22064;42.672;23.282;2023-08-01T06:59:35;94346.06;;;22.00;100.00
35989;BME280;22064;42.672;23.282;2023-08-01T07:02:02;94339.44;;;21.85;100.00
35989;BME280;22064;42.672;23.282;2023-08-01T07:04:28;94353.69;;;21.72;100.00
35989;BME280;22064;42.672;23.282;2023-08-01T07:06:54;94345.69;;;22.10;100.00
35989;BME280;22064;42.672;23.282;2023-08-01T07:09:20;94347.28;;;22.32;100.00
35989;BME280;22064;42.672;23.282;2023-08-01T07:11:46;94335.75;;;22.70;99.74
35989;BME280;22064;42.672;23.282;2023-08-01T07:14:12;94338.78;;;23.02;98.42
35989;BME280;22064;42.672;23.282;2023-08-01T07:16:38;94330.16;;;22.72;97.13
35989;BME280;22064;42.672;23.282;2023-08-01T07:19:05;94341.00;;;22.16;100.00
35989;BME280;22064;42.672;23.282;2023-08-01T07:21:31;94334.44;;;22.13;100.00
35989;BME280;22064;42.672;23.282;2023-08-01T07:23:57;94317.53;;;22.48;100.00
35989;BME280;22064;42.672;23.282;2023-08-01T07:26:23;94320.06;;;22.65;100.00
35989;BME280;22064;42.672;23.282;2023-08-01T07:28:49;94316.94;;;22.84;98.87
35989;BME280;22064;42.672;23.282;2023-08-01T07:31:15;94326.50;;;22.97;98.67
35989;BME280;22064;42.672;23.282;2023-08-01T07:33:41;94320.25;;;23.26;94.93
35989;BME280;22064;42.672;23.282;2023-08-01T07:36:07;94327.28;;;23.56;93.56
35989;BME280;22064;42.672;23.282;2023-08-01T07:38:33;94324.38;;;23.48;97.31
35989;BME280;22064;42.672;23.282;2023-08-01T07:41:04;94322.75;;;23.68;94.15
35989;BME280;22064;42.672;23.282;2023-08-01T07:43:30;94319.03;;;22.91;100.00
35989;BME280;22064;42.672;23.282;2023-08-01T07:45:57;94313.34;;;23.01;100.00
35989;BME280;22064;42.672;23.282;2023-08-01T07:48:23;94319.84;;;23.37;99.46
35989;BME280;22064;42.672;23.282;2023-08-01T07:50:49;94329.53;;;23.78;94.48
35989;BME280;22064;42.672;23.282;2023-08-01T07:53:16;94323.75;;;24.13;93.75
35989;BME280;22064;42.672;23.282;2023-08-01T07:55:42;94326.69;;;24.24;85.23
35989;BME280;22064;42.672;23.282;2023-08-01T07:58:08;94304.97;;;23.23;96.32
35989;BME280;22064;42.672;23.282;2023-08-01T08:00:36;94322.13;;;23.14;100.00
35989;BME280;22064;42.672;23.282;2023-08-01T08:03:03;94319.31;;;23.43;100.00
35989;BME280;22064;42.672;23.282;2023-08-01T08:05:28;94315.41;;;23.28;100.00
35989;BME280;22064;42.672;23.282;2023-08-01T08:07:54;94307.50;;;23.78;99.28
35989;BME280;22064;42.672;23.282;2023-08-01T08:10:20;94306.34;;;24.15;87.63
35989;BME280;22064;42.672;23.282;2023-08-01T08:12:46;94303.31;;;24.29;84.17
35989;BME280;22064;42.672;23.282;2023-08-01T08:15:12;94306.06;;;24.45;85.50
35989;BME280;22064;42.672;23.282;2023-08-01T08:17:39;94298.66;;;24.66;81.07
35989;BME280;22064;42.672;23.282;2023-08-01T08:20:06;94301.91;;;24.88;77.45
35989;BME280;22064;42.672;23.282;2023-08-01T08:22:32;94303.50;;;25.05;73.98
35989;BME280;22064;42.672;23.282;2023-08-01T08:24:58;94296.69;;;25.07;74.18
35989;BME280;22064;42.672;23.282;2023-08-01T08:27:24;94293.75;;;25.25;72.97
35989;BME280;22064;42.672;23.282;2023-08-01T08:29:50;94287.50;;;25.33;70.71
35989;BME280;22064;42.672;23.282;2023-08-01T08:32:16;94295.56;;;25.52;69.60
35989;BME280;22064;42.672;23.282;2023-08-01T08:34:42;94296.84;;;25.74;69.31
35989;BME280;22064;42.672;23.282;2023-08-01T08:37:08;94283.56;;;25.78;68.55
35989;BME280;22064;42.672;23.282;2023-08-01T08:39:34;94292.13;;;25.68;67.46
35989;BME280;22064;42.672;23.282;2023-08-01T08:42:00;94286.09;;;25.23;72.98
35989;BME280;22064;42.672;23.282;2023-08-01T08:44:26;94276.69;;;24.70;74.93
35989;BME280;22064;42.672;23.282;2023-08-01T08:47:01;94279.00;;;24.99;74.82
35989;BME280;22064;42.672;23.282;2023-08-01T08:49:30;94273.88;;;25.22;71.97
35989;BME280;22064;42.672;23.282;2023-08-01T08:51:58;94278.38;;;24.90;73.70
35989;BME280;22064;42.672;23.282;2023-08-01T08:54:24;94266.84;;;25.14;75.72
35989;BME280;22064;42.672;23.282;2023-08-01T08:56:51;94264.97;;;25.15;70.69
35989;BME280;22064;42.672;23.282;2023-08-01T08:59:18;94261.66;;;25.05;71.89
35989;BME280;22064;42.672;23.282;2023-08-01T09:01:45;94270.81;;;25.36;70.03
35989;BME280;22064;42.672;23.282;2023-08-01T09:04:11;94261.34;;;25.23;69.37
35989;BME280;22064;42.672;23.282;2023-08-01T09:06:44;94263.16;;;25.19;70.53
35989;BME280;22064;42.672;23.282;2023-08-01T09:09:14;94256.56;;;25.64;70.68
35989;BME280;22064;42.672;23.282;2023-08-01T09:11:47;94252.41;;;25.98;66.54
35989;BME280;22064;42.672;23.282;2023-08-01T09:14:15;94241.13;;;26.43;63.17
35989;BME280;22064;42.672;23.282;2023-08-01T09:16:41;94237.94;;;26.73;60.77
35989;BME280;22064;42.672;23.282;2023-08-01T09:19:08;94229.09;;;26.92;58.25
35989;BME280;22064;42.672;23.282;2023-08-01T09:21:36;94237.78;;;27.08;57.63
35989;BME280;22064;42.672;23.282;2023-08-01T09:26:34;94241.03;;;26.56;57.82
35989;BME280;22064;42.672;23.282;2023-08-01T09:29:00;94217.19;;;26.66;59.01
35989;BME280;22064;42.672;23.282;2023-08-01T09:31:29;94235.75;;;27.02;57.90
35989;BME280;22064;42.672;23.282;2023-08-01T09:33:56;94236.38;;;27.14;56.80
35989;BME280;22064;42.672;23.282;2023-08-01T09:36:23;94237.72;;;27.05;56.83
35989;BME280;22064;42.672;23.282;2023-08-01T09:38:49;94233.22;;;26.27;61.06
35989;BME280;22064;42.672;23.282;2023-08-01T09:41:19;94225.06;;;26.40;60.41
35989;BME280;22064;42.672;23.282;2023-08-01T09:43:49;94230.63;;;26.70;58.00
35989;BME280;22064;42.672;23.282;2023-08-01T09:46:15;94230.63;;;26.93;57.94
35989;BME280;22064;42.672;23.282;2023-08-01T09:48:42;94222.47;;;27.28;55.87
35989;BME280;22064;42.672;23.282;2023-08-01T09:51:11;94217.34;;;27.69;54.47
35989;BME280;22064;42.672;23.282;2023-08-01T09:56:21;94210.00;;;28.49;52.13
35989;BME280;22064;42.672;23.282;2023-08-01T09:58:48;94213.47;;;28.91;50.92
35989;BME280;22064;42.672;23.282;2023-08-01T10:01:19;94193.94;;;28.90;49.03
35989;BME280;22064;42.672;23.282;2023-08-01T10:03:48;94199.59;;;28.82;48.69
35989;BME280;22064;42.672;23.282;2023-08-01T10:06:18;94195.72;;;28.75;48.35
35989;BME280;22064;42.672;23.282;2023-08-01T10:08:49;94194.59;;;28.76;47.92
35989;BME280;22064;42.672;23.282;2023-08-01T10:11:18;94203.22;;;27.42;50.91
35989;BME280;22064;42.672;23.282;2023-08-01T10:13:44;94175.97;;;26.64;54.07
35989;BME280;22064;42.672;23.282;2023-08-01T10:16:11;94185.03;;;26.59;54.79
35989;BME280;22064;42.672;23.282;2023-08-01T10:18:39;94185.22;;;27.16;55.13
35989;BME280;22064;42.672;23.282;2023-08-01T10:21:06;94185.16;;;27.62;53.01
35989;BME280;22064;42.672;23.282;2023-08-01T10:23:33;94187.72;;;27.28;52.57
35989;BME280;22064;42.672;23.282;2023-08-01T10:26:01;94183.25;;;27.13;53.02
35989;BME280;22064;42.672;23.282;2023-08-01T10:33:34;94159.38;;;28.78;49.07
35989;BME280;22064;42.672;23.282;2023-08-01T10:36:00;94160.84;;;29.13;48.09
35989;BME280;22064;42.672;23.282;2023-08-01T10:38:26;94155.25;;;28.88;47.46
35989;BME280;22064;42.672;23.282;2023-08-01T10:40:52;94155.28;;;28.50;49.20
35989;BME280;22064;42.672;23.282;2023-08-01T10:43:22;94155.56;;;28.08;49.31
35989;BME280;22064;42.672;23.282;2023-08-01T10:45:48;94137.00;;;27.89;48.49
35989;BME280;22064;42.672;23.282;2023-08-01T10:48:26;94141.78;;;28.06;48.85
35989;BME280;22064;42.672;23.282;2023-08-01T10:50:55;94142.94;;;28.05;49.32
35989;BME280;22064;42.672;23.282;2023-08-01T10:53:22;94139.38;;;28.31;47.38
35989;BME280;22064;42.672;23.282;2023-08-01T10:55:48;94135.09;;;28.23;46.28
35989;BME280;22064;42.672;23.282;2023-08-01T10:58:15;94136.94;;;28.19;46.46
35989;BME280;22064;42.672;23.282;2023-08-01T11:00:42;94137.56;;;28.39;44.39
35989;BME280;22064;42.672;23.282;2023-08-01T11:03:08;94128.28;;;29.07;37.93
35989;BME280;22064;42.672;23.282;2023-08-01T11:05:34;94126.72;;;29.06;36.87
35989;BME280;22064;42.672;23.282;2023-08-01T11:08:02;94130.81;;;28.96;36.32
35989;BME280;22064;42.672;23.282;2023-08-01T11:10:30;94115.75;;;28.77;35.69
35989;BME280;22064;42.672;23.282;2023-08-01T11:12:57;94112.88;;;29.00;35.01
35989;BME280;22064;42.672;23.282;2023-08-01T11:15:24;94115.47;;;28.45;34.34
35989;BME280;22064;42.672;23.282;2023-08-01T11:17:52;94104.31;;;28.06;34.47
35989;BME280;22064;42.672;23.282;2023-08-01T11:20:23;94098.28;;;28.50;35.17
35989;BME280;22064;42.672;23.282;2023-08-01T11:23:00;94091.53;;;29.15;35.63
35989;BME280;22064;42.672;23.282;2023-08-01T11:25:38;94093.88;;;29.20;34.71
35989;BME280;22064;42.672;23.282;2023-08-01T11:28:14;94096.28;;;28.84;34.56
35989;BME280;22064;42.672;23.282;2023-08-01T11:30:41;94091.91;;;28.65;33.64
35989;BME280;22064;42.672;23.282;2023-08-01T11:33:21;94088.38;;;28.54;33.87
35989;BME280;22064;42.672;23.282;2023-08-01T11:35:52;94091.00;;;28.95;33.72
35989;BME280;22064;42.672;23.282;2023-08-01T11:38:20;94086.19;;;28.63;32.12
35989;BME280;22064;42.672;23.282;2023-08-01T11:40:47;94080.19;;;28.81;34.22
35989;BME280;22064;42.672;23.282;2023-08-01T11:43:15;94087.13;;;28.89;34.96
35989;BME280;22064;42.672;23.282;2023-08-01T11:45:51;94084.03;;;29.35;33.82
35989;BME280;22064;42.672;23.282;2023-08-01T11:48:23;94075.88;;;29.20;32.79
35989;BME280;22064;42.672;23.282;2023-08-01T11:50:57;94068.38;;;29.48;33.62
35989;BME280;22064;42.672;23.282;2023-08-01T11:53:24;94055.47;;;29.78;31.69
35989;BME280;22064;42.672;23.282;2023-08-01T11:55:50;94062.31;;;29.61;32.02
35989;BME280;22064;42.672;23.282;2023-08-01T11:58:32;94057.59;;;30.49;32.17
35989;BME280;22064;42.672;23.282;2023-08-01T12:01:06;94049.13;;;31.19;34.02
35989;BME280;22064;42.672;23.282;2023-08-01T12:06:13;94056.91;;;32.05;33.12
35989;BME280;22064;42.672;23.282;2023-08-01T12:08:42;94054.22;;;32.08;31.19
35989;BME280;22064;42.672;23.282;2023-08-01T12:11:25;94046.28;;;32.50;30.61
35989;BME280;22064;42.672;23.282;2023-08-01T12:14:03;94045.81;;;32.62;29.85
35989;BME280;22064;42.672;23.282;2023-08-01T12:16:30;94050.97;;;32.91;29.71
35989;BME280;22064;42.672;23.282;2023-08-01T12:18:57;94043.00;;;33.21;29.47
35989;BME280;22064;42.672;23.282;2023-08-01T12:21:24;94041.56;;;33.47;29.49
35989;BME280;22064;42.672;23.282;2023-08-01T12:23:50;94044.63;;;33.84;28.70
35989;BME280;22064;42.672;23.282;2023-08-01T12:26:16;94033.22;;;33.99;27.01
35989;BME280;22064;42.672;23.282;2023-08-01T12:28:43;94032.19;;;33.90;25.01
35989;BME280;22064;42.672;23.282;2023-08-01T12:31:09;94031.81;;;32.22;27.00
35989;BME280;22064;42.672;23.282;2023-08-01T12:33:35;94025.88;;;31.82;27.41
35989;BME280;22064;42.672;23.282;2023-08-01T12:36:02;94021.22;;;31.93;27.64
35989;BME280;22064;42.672;23.282;2023-08-01T12:38:29;94024.91;;;31.40;28.07
35989;BME280;22064;42.672;23.282;2023-08-01T12:40:55;94022.03;;;31.76;27.90
35989;BME280;22064;42.672;23.282;2023-08-01T12:43:21;94029.25;;;32.01;26.98
35989;BME280;22064;42.672;23.282;2023-08-01T12:45:48;94026.44;;;31.27;28.02
35989;BME280;22064;42.672;23.282;2023-08-01T12:48:14;94014.22;;;30.61;27.89
35989;BME280;22064;42.672;23.282;2023-08-01T12:50:44;94018.78;;;30.18;28.22
35989;BME280;22064;42.672;23.282;2023-08-01T12:53:11;94015.00;;;30.48;28.01
35989;BME280;22064;42.672;23.282;2023-08-01T12:55:37;94010.00;;;30.32;27.92